Latest Weather Observations for St Helens

IDT60801

Issued at 1:51 am EDT Wednesday 20 March 2019 (issued every 10 minutes, with the page automatically refreshed every 10 minutes)

About weather observations | Map of weather stations | Latest weather observations for TAS | Other Formats
Station Details ID: 092120 Name: ST HELENS AERODROME Lat: -41.34 Lon: 148.28 Height: 48.0 m
Data from the previous 72 hours. | See also: Recent months at St Helens
Date/Time
EDT
Temp
°C
App
Temp
°C
Dew
Point
°C
Rel
Hum
%
Delta-T
°C
Wind Press
QNH
hPa
Press
MSL
hPa
Rain since
9am
mm
Dir  Spd
km/h
Gust
km/h
Spd
kts
Gust
kts
20/01:34am 17.4 18.2 17.2 99 0.1 S 9 15 5 8 1018.4 - 6.6
20/01:30am 17.4 18.2 17.2 99 0.1 S 9 15 5 8 1018.4 - 6.6
20/01:21am 17.4 18.2 17.2 99 0.1 SSE 9 19 5 10 1018.5 - 6.6
20/01:00am 17.5 18.3 17.3 99 0.1 S 9 15 5 8 1018.6 - 6.4
20/12:41am 17.5 17.9 17.3 99 0.1 S 11 17 6 9 1018.8 - 6.2
20/12:30am 17.5 18.3 17.3 99 0.1 S 9 15 5 8 1018.9 - 6.2
20/12:11am 17.6 18.4 17.4 99 0.1 S 9 13 5 7 1019.0 - 6.2
20/12:00am 17.6 18.4 17.4 99 0.1 SSE 9 15 5 8 1019.1 1019.1 6.2
 
Date/Time
EDT
Temp
°C
App
Temp
°C
Dew
Point
°C
Rel
Hum
%
Delta-T
°C
Wind Press
QNH
hPa
Press
MSL
hPa
Rain since
9am
mm
Dir  Spd
km/h
Gust
km/h
Spd
kts
Gust
kts
19/11:51pm 17.6 18.8 17.4 99 0.1 SSE 7 11 4 6 1019.1 - 6.2
19/11:44pm 17.6 18.4 17.4 99 0.1 SSE 9 13 5 7 1019.2 - 6.2
19/11:30pm 17.7 19.0 17.5 99 0.1 SSE 7 13 4 7 1019.3 - 6.2
19/11:25pm 17.7 18.6 17.5 99 0.1 SSE 9 13 5 7 1019.3 - 6.2
19/11:00pm 17.7 18.2 17.5 99 0.1 SE 11 19 6 10 1019.4 - 6.2
19/10:30pm 17.8 18.7 17.6 99 0.1 SE 9 17 5 9 1019.4 - 6.2
19/10:05pm 17.8 18.4 17.6 99 0.1 SE 11 15 6 8 1019.4 - 6.2
19/10:00pm 17.8 18.7 17.6 99 0.1 SE 9 17 5 9 1019.4 - 6.2
19/09:46pm 17.7 18.6 17.5 99 0.1 SSE 9 15 5 8 1019.4 - 6.2
19/09:31pm 17.4 17.8 17.2 99 0.1 S 11 19 6 10 1019.3 - 6.2
19/09:30pm 17.4 17.8 17.2 99 0.1 S 11 19 6 10 1019.3 - 6.2
19/09:00pm 17.3 16.9 17.1 99 0.1 S 15 28 8 15 1019.1 1019.1 5.8
19/08:30pm 17.3 16.8 17.0 98 0.2 S 15 28 8 15 1018.9 - 5.6
19/08:00pm 17.2 16.7 16.9 98 0.2 S 15 26 8 14 1018.7 - 5.4
19/07:33pm 17.4 17.0 17.1 98 0.2 S 15 20 8 11 1018.5 - 5.2
19/07:30pm 17.4 16.9 16.9 97 0.3 S 15 26 8 14 1018.5 - 5.2
19/07:00pm 17.4 17.3 16.9 97 0.3 S 13 20 7 11 1018.4 - 5.2
19/06:56pm 17.4 17.3 16.9 97 0.3 S 13 20 7 11 1018.4 - 5.2
19/06:36pm 17.4 17.3 16.9 97 0.3 S 13 24 7 13 1018.3 - 5.2
19/06:30pm 17.4 17.3 16.9 97 0.3 S 13 20 7 11 1018.4 - 5.2
19/06:00pm 17.5 17.4 17.0 97 0.3 S 13 20 7 11 1018.2 1018.2 5.2
19/05:30pm 17.5 16.7 17.0 97 0.3 SSE 17 28 9 15 1018.0 - 5.2
19/05:00pm 17.8 17.6 17.5 98 0.2 S 15 24 8 13 1017.9 - 5.2
19/04:30pm 17.7 17.8 17.4 98 0.2 S 13 24 7 13 1017.9 - 5.2
19/04:23pm 17.8 17.6 17.6 99 0.1 S 15 28 8 15 1017.9 - 5.2
19/04:00pm 17.3 16.5 17.0 98 0.2 S 17 32 9 17 1018.1 - 5.2
19/03:30pm 17.2 16.3 16.9 98 0.2 S 17 28 9 15 1018.2 - 5.2
19/03:00pm 17.1 15.8 16.8 98 0.2 S 19 30 10 16 1018.3 1018.3 5.0
19/02:30pm 17.3 16.4 16.8 97 0.3 S 17 26 9 14 1018.5 - 4.2
19/02:00pm 17.5 17.0 17.0 97 0.3 S 15 24 8 13 1018.8 - 2.6
19/01:56pm 17.5 17.0 17.0 97 0.3 S 15 24 8 13 1018.9 - 2.6
19/01:40pm 17.3 16.3 16.7 96 0.4 S 17 28 9 15 1019.0 - 1.8
19/01:30pm 17.6 17.1 16.8 95 0.5 S 15 26 8 14 1019.1 - 0.6
19/01:01pm 18.2 17.7 17.0 93 0.7 S 15 28 8 15 1019.2 - 0.0
19/01:00pm 18.1 17.6 16.9 93 0.7 S 15 28 8 15 1019.2 - 0.0
19/12:41pm 18.0 17.0 16.5 91 0.9 S 17 26 9 14 1019.4 - 0.0
19/12:30pm 18.3 17.3 16.6 90 1.0 S 17 32 9 17 1019.5 - 0.0
19/12:29pm 18.3 16.9 16.5 89 1.1 S 19 32 10 17 1019.5 - 0.0
19/12:00pm 19.1 17.9 16.1 83 1.8 S 17 28 9 15 1019.7 1019.7 0.0
19/11:30am 18.5 17.0 16.3 87 1.3 S 19 28 10 15 1019.9 - 0.0
19/11:00am 18.5 17.4 16.3 87 1.3 S 17 30 9 16 1019.8 - 0.0
19/10:30am 18.6 17.1 15.3 81 1.9 S 17 26 9 14 1019.9 - 0.0
19/10:00am 18.2 16.6 14.9 81 1.9 S 17 26 9 14 1019.7 - 0.0
19/09:42am 18.1 16.8 14.8 81 1.9 S 15 24 8 13 1019.7 - 0.0
19/09:30am 17.8 16.5 14.7 82 1.8 S 15 24 8 13 1019.7 - 0.0
19/09:07am 17.5 16.1 14.4 82 1.8 S 15 20 8 11 1019.6 - 0.0
19/09:00am 17.5 16.1 14.4 82 1.8 S 15 26 8 14 1019.6 1019.6 0.0
19/08:30am 17.0 15.5 14.1 83 1.7 S 15 26 8 14 1019.6 - 0.0
19/08:15am 16.8 15.6 13.9 83 1.6 S 13 20 7 11 1019.6 - 0.0
19/08:00am 16.6 15.2 13.5 82 1.7 S 13 20 7 11 1019.6 - 0.0
19/07:30am 16.2 14.6 12.9 81 1.8 S 13 20 7 11 1019.5 - 0.0
19/07:00am 15.9 14.8 13.0 83 1.6 S 11 17 6 9 1019.5 - 0.0
19/06:30am 15.5 14.7 12.8 84 1.5 SSW 9 17 5 9 1019.4 - 0.0
19/06:00am 15.3 14.5 12.8 85 1.4 S 9 13 5 7 1019.4 1019.4 0.0
19/05:30am 15.1 13.8 12.4 84 1.5 S 11 19 6 10 1019.2 - 0.0
19/05:23am 15.2 13.9 12.5 84 1.5 S 11 20 6 11 1019.2 - 0.0
19/05:00am 15.4 13.8 12.9 85 1.4 S 13 20 7 11 1019.2 - 0.0
19/04:30am 15.5 13.6 13.0 85 1.4 S 15 26 8 14 1019.4 - 0.0
19/04:00am 15.7 14.1 12.8 83 1.6 S 13 22 7 12 1019.6 - 0.0
19/03:30am 16.0 14.4 12.7 81 1.8 S 13 20 7 11 1019.7 - 0.0
19/03:00am 15.9 14.5 12.1 78 2.1 S 11 17 6 9 1019.9 1019.9 0.0
19/02:30am 16.0 14.9 12.0 77 2.2 S 9 15 5 8 1020.1 - 0.0
19/02:00am 16.0 14.5 12.0 77 2.2 S 11 15 6 8 1020.3 - 0.0
19/01:30am 15.8 14.4 12.2 79 2.0 S 11 20 6 11 1020.6 - 0.0
19/01:00am 15.7 14.4 12.6 82 1.7 S 11 19 6 10 1020.8 - 0.0
19/12:30am 15.8 14.2 12.9 83 1.6 S 13 20 7 11 1021.1 - 0.0
19/12:00am 16.1 14.4 12.3 78 2.1 S 13 19 7 10 1021.3 1021.3 0.0
 
Date/Time
EDT
Temp
°C
App
Temp
°C
Dew
Point
°C
Rel
Hum
%
Delta-T
°C
Wind Press
QNH
hPa
Press
MSL
hPa
Rain since
9am
mm
Dir  Spd
km/h
Gust
km/h
Spd
kts
Gust
kts
18/11:30pm 16.2 14.8 12.2 77 2.2 S 11 15 6 8 1021.6 - 0.0
18/11:00pm 16.1 14.7 12.3 78 2.1 S 11 17 6 9 1021.8 - 0.0
18/10:30pm 15.5 13.7 12.1 80 1.9 S 13 19 7 10 1021.8 - 0.0
18/10:00pm 15.2 13.8 12.3 83 1.6 S 11 17 6 9 1021.9 - 0.0
18/09:30pm 15.2 14.4 11.6 79 1.9 S 7 13 4 7 1021.8 - 0.0
18/09:00pm 16.1 15.0 11.9 76 2.3 SSE 9 13 5 7 1021.8 1021.8 0.0
18/08:30pm 16.3 15.2 11.9 75 2.4 SE 9 15 5 8 1021.6 - 0.0
18/08:00pm 16.4 15.3 11.8 74 2.5 SE 9 17 5 9 1021.5 - 0.0
18/07:30pm 16.6 15.3 11.3 71 2.9 ESE 9 15 5 8 1021.4 - 0.0
18/07:00pm 17.6 15.6 11.6 68 3.3 SE 13 19 7 10 1021.2 - 0.0
18/06:30pm 17.9 16.8 11.9 68 3.3 SE 9 17 5 9 1021.1 - 0.0
18/06:00pm 18.4 17.3 11.9 66 3.6 SE 9 17 5 9 1021.0 1021.0 0.0
18/05:30pm 18.7 17.2 12.0 65 3.7 SE 11 22 6 12 1021.0 - 0.0
18/05:00pm 18.8 17.0 12.1 65 3.7 ESE 13 24 7 13 1021.0 - 0.0
18/04:30pm 18.8 17.9 12.5 67 3.5 SE 9 20 5 11 1021.1 - 0.0
18/04:00pm 18.9 17.1 13.3 70 3.2 S 15 24 8 13 1021.2 - 0.0
18/03:30pm 19.1 17.0 13.7 71 3.1 S 17 26 9 14 1021.3 - 0.0
18/03:00pm 19.6 17.8 13.3 67 3.6 S 15 24 8 13 1021.5 1021.5 0.0
18/02:30pm 18.7 16.5 14.4 76 2.5 S 19 30 10 16 1021.7 - 0.0
18/02:00pm 19.3 17.2 13.7 70 3.2 S 17 26 9 14 1022.0 - 0.0
18/01:30pm 19.5 17.7 14.5 73 2.9 S 17 26 9 14 1022.2 - 0.0
18/01:00pm 18.9 17.2 14.8 77 2.4 S 17 26 9 14 1022.4 - 0.0
18/12:30pm 19.4 18.7 15.3 77 2.4 S 13 20 7 11 1022.4 - 0.0
18/12:00pm 18.5 16.4 14.6 78 2.3 S 19 30 10 16 1022.7 1022.7 0.0
18/11:30am 19.3 18.1 15.0 76 2.5 S 15 28 8 15 1022.8 - 0.0
18/11:00am 17.7 16.3 14.6 82 1.8 S 15 26 8 14 1023.1 - 0.0
18/10:30am 18.1 16.7 15.5 85 1.5 S 17 24 9 13 1023.1 - 0.0
18/10:00am 16.9 15.0 15.1 89 1.0 S 19 26 10 14 1023.1 - 0.0
18/09:30am 17.7 17.9 16.7 94 0.6 S 11 17 6 9 1022.9 - 0.0
18/09:00am 16.5 16.8 15.9 96 0.4 S 9 13 5 7 1022.9 1022.9 1.8
18/08:30am 16.3 16.9 15.7 96 0.4 S 7 9 4 5 1022.9 - 1.8
18/08:00am 15.8 15.8 15.3 97 0.3 S 9 17 5 9 1022.8 - 1.8
18/07:30am 15.6 14.8 15.1 97 0.3 S 13 20 7 11 1022.7 - 1.6
18/07:04am 15.7 14.9 15.2 97 0.3 S 13 20 7 11 1022.4 - 1.6
18/07:00am 15.7 14.9 15.2 97 0.3 S 13 20 7 11 1022.4 - 1.6
18/06:30am 15.6 16.5 15.1 97 0.3 SSE 4 7 2 4 1022.3 - 1.6
18/06:11am 15.5 16.7 14.9 96 0.3 SSW 2 7 1 4 1022.1 - 1.6
18/06:00am 15.4 16.6 14.8 96 0.3 SSW 2 7 1 4 1022.1 1022.1 1.6
18/05:30am 15.3 15.7 14.7 96 0.3 SSE 6 9 3 5 1022.1 - 1.4
18/05:27am 15.3 15.7 14.7 96 0.3 SE 6 9 3 5 1022.1 - 1.4
18/05:06am 15.2 15.4 14.6 96 0.3 ESE 7 15 4 8 1022.1 - 1.2
18/05:03am 15.1 15.2 14.5 96 0.3 ESE 7 15 4 8 1022.1 - 1.2
18/05:00am 15.1 14.8 14.5 96 0.3 E 9 15 5 8 1022.1 - 1.2
18/04:31am 15.6 13.9 14.8 95 0.5 E 17 26 9 14 1022.1 - 0.8
18/04:30am 15.7 14.4 14.9 95 0.5 E 15 26 8 14 1022.1 - 0.8
18/04:05am 15.9 15.9 15.1 95 0.5 E 9 15 5 8 1022.1 - 0.6
18/04:00am 15.8 15.6 14.8 94 0.6 E 9 17 5 9 1022.1 - 0.6
18/03:51am 15.9 15.4 14.9 94 0.6 E 11 19 6 10 1022.1 - 0.6
18/03:30am 16.5 16.0 15.0 91 0.9 E 11 17 6 9 1022.1 - 0.0
18/03:23am 16.7 16.6 14.9 89 1.0 ESE 9 17 5 9 1022.1 - 0.0
18/03:00am 17.5 16.9 14.6 83 1.7 SSE 11 20 6 11 1022.2 1022.2 0.0
18/02:30am 17.5 17.0 14.8 84 1.6 SE 11 22 6 12 1022.4 - 0.0
18/02:00am 17.6 16.8 14.1 80 2.0 SSE 11 20 6 11 1022.4 - 0.0
18/01:30am 17.6 16.8 14.1 80 2.0 SE 11 20 6 11 1022.5 - 0.0
18/01:00am 17.3 17.1 14.6 84 1.6 S 9 15 5 8 1022.6 - 0.0
18/12:30am 16.7 15.9 14.0 84 1.5 S 11 15 6 8 1022.8 - 0.0
18/12:00am 17.0 16.6 14.1 83 1.6 S 9 15 5 8 1023.1 1023.1 0.0
 
Date/Time
EDT
Temp
°C
App
Temp
°C
Dew
Point
°C
Rel
Hum
%
Delta-T
°C
Wind Press
QNH
hPa
Press
MSL
hPa
Rain since
9am
mm
Dir  Spd
km/h
Gust
km/h
Spd
kts
Gust
kts
17/11:30pm 16.6 16.1 13.7 83 1.6 S 9 13 5 7 1023.2 - 0.0
17/11:00pm 16.5 15.2 13.8 84 1.5 S 13 19 7 10 1023.2 - 0.0
17/10:30pm 16.9 15.6 13.8 82 1.8 S 13 20 7 11 1023.4 - 0.0
17/10:00pm 17.1 16.2 13.8 81 1.9 S 11 17 6 9 1023.6 - 0.0
17/09:30pm 17.1 16.2 13.6 80 2.0 S 11 15 6 8 1023.5 - 0.0
17/09:00pm 17.0 15.6 13.3 79 2.1 S 13 19 7 10 1023.2 1023.2 0.0
17/08:30pm 17.0 16.0 13.3 79 2.1 S 11 20 6 11 1023.1 - 0.0
17/08:00pm 17.0 16.0 13.3 79 2.1 S 11 19 6 10 1022.8 - 0.0
17/07:30pm 16.9 16.0 13.6 81 1.9 S 11 17 6 9 1022.7 - 0.0
17/07:00pm 17.1 16.5 13.6 80 2.0 S 9 17 5 9 1022.8 - 0.0
17/06:30pm 17.3 16.3 13.4 78 2.2 S 11 20 6 11 1022.7 - 0.0
17/06:00pm 17.6 16.6 13.5 77 2.3 S 11 15 6 8 1022.6 1022.6 0.0
17/05:30pm 17.4 16.9 13.9 80 2.0 S 9 20 5 11 1022.6 - 0.0
17/05:00pm 16.9 16.4 13.8 82 1.8 S 9 13 5 7 1022.4 - 0.0
17/04:30pm 18.0 16.1 12.9 72 2.9 E 15 26 8 14 1022.5 - 0.0
17/04:00pm 18.2 17.4 14.1 77 2.4 SE 11 20 6 11 1022.6 - 0.0
17/03:30pm 18.9 17.2 13.5 71 3.1 SE 15 24 8 13 1022.4 - 0.0
17/03:00pm 19.7 18.2 12.0 61 4.3 SSE 11 19 6 10 1022.4 1022.4 0.0
17/02:30pm 20.8 20.2 12.2 58 4.8 ESE 7 20 4 11 1022.6 - 0.0
17/02:00pm 20.9 18.8 11.3 54 5.3 E 13 22 7 12 1022.7 - 0.0
17/01:30pm 21.4 19.7 11.1 52 5.7 E 11 22 6 12 1023.1 - 0.0
17/01:00pm 20.4 18.0 11.3 56 5.0 ENE 15 22 8 12 1023.4 - 0.0
17/12:30pm 20.2 18.6 11.4 57 4.9 E 11 20 6 11 1023.6 - 0.0
17/12:00pm 19.7 18.2 12.0 61 4.3 E 11 17 6 9 1023.9 1023.9 0.0
17/11:30am 19.1 18.4 12.1 64 3.9 SE 7 13 4 7 1024.3 - 0.0
17/11:00am 19.1 18.7 13.1 68 3.4 SE 7 15 4 8 1024.6 - 0.0
17/10:30am 18.6 18.3 13.2 71 3.1 SE 7 11 4 6 1024.7 - 0.0
17/10:00am 18.2 18.8 13.1 72 2.9 N 2 7 1 4 1024.7 - 0.0
17/09:30am 17.3 17.9 13.2 77 2.3 W 2 7 1 4 1024.7 - 0.0
17/09:00am 16.0 16.3 13.5 85 1.4 W 4 7 2 4 1024.8 1024.8 0.0
17/08:30am 15.6 16.2 13.1 85 1.4 S 2 6 1 3 1024.7 - 0.0
17/08:00am 14.5 15.3 12.4 87 1.1 CALM 0 0 0 0 1024.4 - 0.0
17/07:30am 13.9 14.5 11.9 88 1.1 CALM 0 0 0 0 1024.2 - 0.0
17/07:00am 14.1 14.4 12.1 88 1.1 WNW 2 7 1 4 1023.9 - 0.0
17/06:30am 13.7 13.0 11.9 89 1.0 WNW 7 13 4 7 1023.4 - 0.0
17/06:00am 13.3 13.8 11.5 89 1.0 CALM 0 7 0 4 1023.4 1023.4 0.0
17/05:30am 13.4 13.9 11.6 89 1.0 CALM 0 0 0 0 1023.3 - 0.0
17/05:00am 13.2 12.3 11.4 89 1.0 WNW 7 9 4 5 1023.4 - 0.0
17/04:30am 13.5 12.3 11.7 89 1.0 NNW 9 11 5 6 1023.4 - 0.0
17/04:00am 13.5 12.8 11.9 90 0.9 NW 7 9 4 5 1023.6 - 0.0
17/03:30am 12.9 12.1 11.1 89 0.9 WNW 6 7 3 4 1023.7 - 0.0
17/03:00am 13.1 12.9 10.6 85 1.3 NW 2 7 1 4 1023.9 1023.9 0.0
17/02:30am 13.8 13.1 11.5 86 1.2 WNW 6 9 3 5 1024.2 - 0.0
17/02:00am 13.8 13.0 11.7 87 1.1 NW 7 9 4 5 1024.6 - 0.0

Other formats

Comma delimited format used in spreadsheet applications
http://www.bom.gov.au/fwo/IDT60801/IDT60801.95981.axf

JavaScript Object Notation format (JSON) in row-major order
http://www.bom.gov.au/fwo/IDT60801/IDT60801.95981.json

Data quality

Most of these data are generated automatically and are frequently updated. Quality checks on data are not normally performed. It is possible for incorrect values to appear. Refer to information at About Latest Weather Observations and please check the disclaimer before using these data.